This is the latest recevied weather packets stored in our database for station/object 9W2CEW-1. If no packets are shown the sender has not sent any weather packets the latest 10 day(s).
| Time | Temp. | Humidity | Pressure | Rain* | Wind** | Luminosity | Snow |
|---|---|---|---|---|---|---|---|
| 1777859349 | 36.67° C | 51% | 1005.9 hPa | - | - | - | - |
| 1777858448 | 36.67° C | 51% | 1005.8 hPa | - | - | - | - |
| 1777857549 | 36.67° C | 51% | 1005.6 hPa | - | - | - | - |
| 1777856648 | 35.56° C | 55% | 1005.5 hPa | - | - | - | - |
| 1777855748 | 36.67° C | 51% | 1005.2 hPa | - | - | - | - |
| 1777854850 | 35° C | 57% | 1004.8 hPa | - | - | - | - |
| 1777853948 | 34.44° C | 59% | 1004.8 hPa | - | - | - | - |
| 1777853048 | 33.89° C | 62% | 1004.3 hPa | - | - | - | - |
| 1777852148 | 32.78° C | 67% | 1004.3 hPa | - | - | - | - |
| 1777851249 | 31.67° C | 70% | 1004.3 hPa | - | - | - | - |
| 1777850348 | 31.11° C | 71% | 1004.1 hPa | - | - | - | - |
| 1777849448 | 31.11° C | 73% | 1003.7 hPa | - | - | - | - |
| 1777848555 | 31.67° C | 72% | 1003.5 hPa | - | - | - | - |
| 1777847647 | 31.67° C | 71% | 1003.6 hPa | - | - | - | - |
| 1777846747 | 31.67° C | 72% | 1003.5 hPa | - | - | - | - |
| 1777845847 | 31.67° C | 71% | 1003.4 hPa | - | - | - | - |
| 1777844947 | 31.67° C | 71% | 1003.1 hPa | - | - | - | - |
| 1777844047 | 31.11° C | 73% | 1003 hPa | - | - | - | - |
| 1777843147 | 31.67° C | 70% | 1002.9 hPa | - | - | - | - |
| 1777842247 | 31.67° C | 70% | 1003 hPa | - | - | - | - |
| 1777841347 | 31.11° C | 73% | 1003 hPa | - | - | - | - |
| 1777840447 | 30.56° C | 74% | 1002.9 hPa | - | - | - | - |
| 1777839547 | 31.67° C | 72% | 1002.9 hPa | - | - | - | - |
| 1777838648 | 31.11° C | 72% | 1003 hPa | - | - | - | - |
| 1777837748 | 31.11° C | 72% | 1003.2 hPa | - | - | - | - |
* Rain since midnight (hover to see other rain measurements)
** Current wind speed in m/s (hover to see current wind gust speed)